createdAt,value
2022-09-01T00:00:14.591Z,96122.00
2022-09-01T00:02:43.159Z,96116.00
2022-09-01T00:05:10.939Z,96117.00
2022-09-01T00:07:38.022Z,96116.00
2022-09-01T00:10:09.378Z,96118.00
2022-09-01T00:12:38.041Z,96119.00
2022-09-01T00:15:08.081Z,96107.00
2022-09-01T00:17:36.317Z,96114.00
2022-09-01T00:20:06.027Z,96109.00
2022-09-01T00:22:34.670Z,96118.00
2022-09-01T00:25:02.498Z,96108.00
2022-09-01T00:27:31.039Z,96110.00
2022-09-01T00:30:00.322Z,96106.00
2022-09-01T00:32:28.900Z,96110.00
2022-09-01T00:34:56.376Z,96105.00
2022-09-01T00:37:23.773Z,96106.00
2022-09-01T00:39:51.232Z,96102.00
2022-09-01T00:42:20.461Z,96100.00
2022-09-01T00:44:48.479Z,96111.00
2022-09-01T00:47:15.940Z,96106.00
2022-09-01T00:49:48.417Z,96097.00
2022-09-01T00:52:35.782Z,96105.00
2022-09-01T00:55:16.826Z,96108.00
2022-09-01T00:57:45.363Z,96097.00
2022-09-01T01:00:26.460Z,96101.00
2022-09-01T01:02:56.711Z,96100.00
2022-09-01T01:05:34.268Z,96110.00
2022-09-01T01:08:03.882Z,96094.00
2022-09-01T01:10:36.096Z,96103.00
2022-09-01T01:13:10.605Z,96097.00
2022-09-01T01:15:38.276Z,96088.00
2022-09-01T01:18:06.236Z,96099.00
2022-09-01T01:20:53.265Z,96096.00
2022-09-01T01:23:58.481Z,96096.00
2022-09-01T01:26:29.164Z,96102.00
2022-09-01T01:28:57.100Z,96093.00
2022-09-01T01:31:25.974Z,96084.00
2022-09-01T01:33:57.174Z,96089.00
2022-09-01T01:36:35.846Z,96089.00
2022-09-01T01:39:15.325Z,96091.00
2022-09-01T01:41:48.745Z,96087.00
2022-09-01T01:44:22.970Z,96092.00
2022-09-01T01:46:55.847Z,96095.00
2022-09-01T01:49:29.626Z,96096.00
2022-09-01T01:51:59.336Z,96097.00
2022-09-01T01:54:32.844Z,96098.00
2022-09-01T01:57:05.033Z,96100.00
2022-09-01T01:59:33.610Z,96093.00
2022-09-01T02:02:04.101Z,96091.00
2022-09-01T02:04:34.257Z,96093.00
2022-09-01T02:07:06.687Z,96088.00
2022-09-01T02:09:34.355Z,96091.00
2022-09-01T02:12:02.009Z,96087.00
2022-09-01T02:14:31.847Z,96086.00
2022-09-01T02:17:02.026Z,96083.00
2022-09-01T02:19:30.942Z,96089.00
2022-09-01T02:22:00.695Z,96086.00
2022-09-01T02:24:31.059Z,96091.00
2022-09-01T02:27:00.631Z,96083.00
2022-09-01T02:29:30.488Z,96088.00
2022-09-01T02:32:04.651Z,96082.00
2022-09-01T02:34:34.889Z,96084.00
2022-09-01T02:37:02.246Z,96082.00
2022-09-01T02:39:33.727Z,96077.00
2022-09-01T02:42:02.218Z,96073.00
2022-09-01T02:44:32.249Z,96074.00
2022-09-01T02:47:01.006Z,96077.00
2022-09-01T02:49:29.770Z,96065.00
2022-09-01T02:52:01.832Z,96076.00
2022-09-01T02:54:33.359Z,96076.00
2022-09-01T02:57:02.012Z,96078.00
2022-09-01T02:59:30.626Z,96075.00
2022-09-01T03:02:01.636Z,96079.00
2022-09-01T03:04:30.094Z,96071.00
2022-09-01T03:06:59.110Z,96074.00
2022-09-01T03:09:27.936Z,96074.00
2022-09-01T03:11:55.927Z,96076.00
2022-09-01T03:14:26.297Z,96073.00
2022-09-01T03:16:54.781Z,96071.00
2022-09-01T03:19:22.297Z,96061.00
2022-09-01T03:21:49.854Z,96070.00
2022-09-01T03:24:22.912Z,96067.00
2022-09-01T03:26:52.598Z,96062.00
2022-09-01T03:29:20.726Z,96064.00
2022-09-01T03:31:50.364Z,96066.00
2022-09-01T03:34:23.862Z,96064.00
2022-09-01T03:36:54.489Z,96053.00
2022-09-01T03:39:29.847Z,96061.00
2022-09-01T03:41:59.598Z,96059.00
2022-09-01T03:44:28.426Z,96051.00
2022-09-01T03:46:56.356Z,96058.00
2022-09-01T03:49:28.153Z,96058.00
2022-09-01T03:51:58.842Z,96055.00
2022-09-01T03:54:27.635Z,96048.00
2022-09-01T03:56:55.071Z,96048.00
2022-09-01T03:59:25.379Z,96048.00
2022-09-01T04:01:53.907Z,96044.00
2022-09-01T04:04:22.221Z,96045.00
2022-09-01T04:06:49.726Z,96050.00
2022-09-01T04:09:18.012Z,96046.00
2022-09-01T04:11:48.836Z,96050.00
2022-09-01T04:14:17.449Z,96050.00
2022-09-01T04:17:06.011Z,96045.00
2022-09-01T04:19:38.575Z,96047.00
2022-09-01T04:22:10.054Z,96056.00
2022-09-01T04:24:46.669Z,96047.00
2022-09-01T04:27:18.471Z,96049.00
2022-09-01T04:29:47.317Z,96048.00
2022-09-01T04:32:16.210Z,96041.00
2022-09-01T04:34:48.689Z,96050.00
2022-09-01T04:37:23.703Z,96046.00
2022-09-01T04:39:57.737Z,96045.00
2022-09-01T04:42:30.648Z,96038.00
2022-09-01T04:45:10.253Z,96037.00
2022-09-01T04:47:42.499Z,96039.00
2022-09-01T04:50:14.844Z,96041.00
2022-09-01T04:53:06.811Z,96028.00
2022-09-01T04:55:49.866Z,96046.00
2022-09-01T04:58:20.696Z,96035.00
2022-09-01T05:00:52.380Z,96039.00
2022-09-01T05:03:24.425Z,96050.00
2022-09-01T05:06:01.427Z,96037.00
2022-09-01T05:08:39.325Z,96029.00
2022-09-01T05:11:17.900Z,96048.00
2022-09-01T05:13:49.298Z,96042.00
2022-09-01T05:16:24.854Z,96039.00
2022-09-01T05:19:00.783Z,96042.00
2022-09-01T05:21:31.672Z,96047.00
2022-09-01T05:24:05.020Z,96050.00
2022-09-01T05:26:34.748Z,96047.00
2022-09-01T05:29:10.675Z,96052.00
2022-09-01T05:31:47.000Z,96036.00
2022-09-01T05:34:36.661Z,96058.00
2022-09-01T05:37:06.466Z,96056.00
2022-09-01T05:39:33.827Z,96053.00
2022-09-01T05:42:01.701Z,96056.00
2022-09-01T05:44:29.132Z,96046.00
2022-09-01T05:47:00.126Z,96062.00
2022-09-01T05:49:33.223Z,96058.00
2022-09-01T05:52:04.932Z,96051.00
2022-09-01T05:54:32.708Z,96063.00
2022-09-01T05:57:17.324Z,96061.00
2022-09-01T05:59:53.870Z,96060.00
2022-09-01T06:02:27.591Z,96050.00
2022-09-01T06:05:00.365Z,96060.00
2022-09-01T06:07:33.965Z,96045.00
2022-09-01T06:10:02.660Z,96054.00
2022-09-01T06:12:32.574Z,96060.00
2022-09-01T06:15:00.233Z,96055.00
2022-09-01T06:17:30.798Z,96047.00
2022-09-01T06:20:10.824Z,96059.00
2022-09-01T06:22:41.183Z,96063.00
2022-09-01T06:25:09.956Z,96068.00
2022-09-01T06:27:42.643Z,96070.00
2022-09-01T06:30:23.915Z,96066.00
2022-09-01T06:33:09.391Z,96061.00
2022-09-01T06:35:40.308Z,96070.00
2022-09-01T06:38:10.028Z,96072.00
2022-09-01T06:40:46.988Z,96067.00
2022-09-01T06:43:16.224Z,96070.00
2022-09-01T06:45:55.800Z,96065.00
2022-09-01T06:48:28.474Z,96067.00
2022-09-01T06:51:21.708Z,96057.00
2022-09-01T06:54:00.204Z,96055.00
2022-09-01T06:56:42.005Z,96072.00
2022-09-01T06:59:15.661Z,96064.00
2022-09-01T07:01:49.222Z,96066.00
2022-09-01T07:04:20.262Z,96075.00
2022-09-01T07:10:21.017Z,96076.00
2022-09-01T07:13:08.965Z,96065.00
2022-09-01T07:18:34.379Z,96073.00
2022-09-01T07:21:36.621Z,96082.00
2022-09-01T07:24:11.512Z,96082.00
2022-09-01T07:26:47.378Z,96079.00
2022-09-01T07:29:35.152Z,96074.00
2022-09-01T07:34:52.272Z,96084.00
2022-09-01T07:42:55.915Z,96063.00
2022-09-01T07:43:34.209Z,96098.00
2022-09-01T07:46:41.559Z,96099.00
2022-09-01T07:49:33.211Z,96101.00
2022-09-01T07:52:04.031Z,96100.00
2022-09-01T07:54:34.119Z,96110.00
2022-09-01T07:57:03.950Z,96105.00
2022-09-01T07:59:35.490Z,96108.00
2022-09-01T08:02:18.521Z,96112.00
2022-09-01T08:04:48.662Z,96106.00
2022-09-01T08:07:16.948Z,96102.00
2022-09-01T08:09:45.221Z,96102.00
2022-09-01T08:12:14.550Z,96099.00
2022-09-01T08:17:57.570Z,96114.00
2022-09-01T08:20:27.780Z,96120.00
2022-09-01T08:23:09.972Z,96123.00
2022-09-01T08:25:42.374Z,96128.00
2022-09-01T08:28:10.659Z,96127.00
2022-09-01T08:30:42.475Z,96124.00
2022-09-01T08:33:22.981Z,96118.00
2022-09-01T08:35:50.373Z,96120.00
2022-09-01T08:38:20.614Z,96120.00
2022-09-01T08:40:57.196Z,96131.00
2022-09-01T08:43:44.138Z,96133.00
2022-09-01T08:46:26.460Z,96117.00
2022-09-01T08:52:33.170Z,96134.00
2022-09-01T08:55:32.719Z,96146.00
2022-09-01T08:58:01.631Z,96137.00
2022-09-01T09:01:28.042Z,96135.00
2022-09-01T09:04:20.848Z,96138.00
2022-09-01T09:07:10.947Z,96127.00
2022-09-01T09:09:57.070Z,96119.00
2022-09-01T09:13:19.936Z,96136.00
2022-09-01T09:16:10.436Z,96132.00
2022-09-01T09:19:04.534Z,96138.00
2022-09-01T09:21:44.622Z,96137.00
2022-09-01T09:24:47.511Z,96140.00
2022-09-01T09:27:29.767Z,96142.00
2022-09-01T09:30:08.084Z,96140.00
2022-09-01T09:35:46.757Z,96126.00
2022-09-01T09:38:23.979Z,96144.00
2022-09-01T09:41:26.536Z,96142.00
2022-09-01T09:44:28.950Z,96140.00
2022-09-01T09:46:57.670Z,96130.00
2022-09-01T09:49:36.520Z,96130.00
2022-09-01T09:52:16.387Z,96139.00
2022-09-01T09:55:36.531Z,96140.00
2022-09-01T09:58:12.876Z,96133.00
2022-09-01T10:00:43.593Z,96137.00
2022-09-01T10:03:15.155Z,96135.00
2022-09-01T10:05:51.883Z,96137.00
2022-09-01T10:08:29.605Z,96130.00
2022-09-01T10:10:58.794Z,96124.00
2022-09-01T10:13:32.991Z,96127.00
2022-09-01T10:16:10.568Z,96128.00
2022-09-01T10:18:44.857Z,96125.00
2022-09-01T10:21:38.814Z,96132.00
2022-09-01T10:24:32.764Z,96134.00
2022-09-01T10:27:24.212Z,96122.00
2022-09-01T10:30:12.420Z,96127.00
2022-09-01T10:32:54.293Z,96128.00
2022-09-01T10:35:30.799Z,96127.00
2022-09-01T10:38:11.079Z,96128.00
2022-09-01T10:40:49.278Z,96128.00
2022-09-01T10:43:26.047Z,96135.00
2022-09-01T10:45:58.828Z,96132.00
2022-09-01T10:48:46.106Z,96129.00
2022-09-01T10:51:19.285Z,96123.00
2022-09-01T10:53:55.580Z,96124.00
2022-09-01T10:56:43.576Z,96128.00
2022-09-01T10:59:31.586Z,96126.00
2022-09-01T11:02:27.730Z,96125.00
2022-09-01T11:04:55.899Z,96138.00
2022-09-01T11:07:44.477Z,96119.00
2022-09-01T11:10:32.719Z,96116.00
2022-09-01T11:13:50.279Z,96130.00
2022-09-01T11:16:50.012Z,96118.00
2022-09-01T11:19:40.019Z,96123.00
2022-09-01T11:22:26.774Z,96113.00
2022-09-01T11:25:26.659Z,96121.00
2022-09-01T11:28:31.487Z,96118.00
2022-09-01T11:31:08.624Z,96109.00
2022-09-01T11:33:55.844Z,96114.00
2022-09-01T11:36:35.142Z,96109.00
2022-09-01T11:39:17.543Z,96105.00
2022-09-01T11:42:08.149Z,96106.00
2022-09-01T11:45:00.158Z,96103.00
2022-09-01T11:47:40.981Z,96100.00
2022-09-01T11:50:24.070Z,96094.00
2022-09-01T11:53:14.555Z,96090.00
2022-09-01T11:55:49.985Z,96101.00
2022-09-01T11:58:27.800Z,96096.00
2022-09-01T12:01:12.592Z,96093.00
2022-09-01T12:03:40.706Z,96085.00
2022-09-01T12:06:12.618Z,96092.00
2022-09-01T12:09:05.322Z,96090.00
2022-09-01T12:11:35.358Z,96102.00
2022-09-01T12:14:11.559Z,96091.00
2022-09-01T12:16:42.798Z,96073.00
2022-09-01T12:19:24.902Z,96093.00
2022-09-01T12:22:19.681Z,96105.00
2022-09-01T12:24:52.235Z,96096.00
2022-09-01T12:27:23.326Z,96090.00
2022-09-01T12:29:51.696Z,96080.00
2022-09-01T12:32:19.844Z,96086.00
2022-09-01T12:35:03.168Z,96087.00
2022-09-01T12:37:34.733Z,96075.00
2022-09-01T12:40:02.435Z,96085.00
2022-09-01T12:42:41.151Z,96086.00
2022-09-01T12:45:13.125Z,96087.00
2022-09-01T12:47:48.102Z,96088.00
2022-09-01T12:50:16.476Z,96090.00
2022-09-01T12:52:54.461Z,96089.00
2022-09-01T12:58:25.703Z,96090.00
2022-09-01T13:01:10.160Z,96089.00
2022-09-01T13:04:24.788Z,96093.00
2022-09-01T13:06:55.117Z,96093.00
2022-09-01T13:09:22.734Z,96091.00
2022-09-01T13:12:06.581Z,96091.00
2022-09-01T13:14:34.987Z,96084.00
2022-09-01T13:17:02.315Z,96081.00
2022-09-01T13:19:30.355Z,96077.00
2022-09-01T13:22:16.794Z,96073.00
2022-09-01T13:24:43.976Z,96083.00
2022-09-01T13:27:22.737Z,96078.00
2022-09-01T13:29:52.965Z,96077.00
2022-09-01T13:32:24.689Z,96086.00
2022-09-01T13:34:54.186Z,96078.00
2022-09-01T13:37:22.334Z,96086.00
2022-09-01T13:39:50.291Z,96084.00
2022-09-01T13:42:18.610Z,96083.00
2022-09-01T13:44:49.612Z,96080.00
2022-09-01T13:47:34.255Z,96076.00
2022-09-01T13:50:10.824Z,96071.00
2022-09-01T13:52:41.757Z,96073.00
2022-09-01T13:55:12.895Z,96077.00
2022-09-01T13:57:40.293Z,96069.00
2022-09-01T14:00:17.469Z,96068.00
2022-09-01T14:02:53.059Z,96069.00
2022-09-01T14:05:30.774Z,96064.00
2022-09-01T14:08:00.142Z,96067.00
2022-09-01T14:10:29.715Z,96069.00
2022-09-01T14:12:57.004Z,96067.00
2022-09-01T14:15:27.286Z,96068.00
2022-09-01T14:17:57.296Z,96068.00
2022-09-01T14:20:37.126Z,96062.00
2022-09-01T14:23:08.800Z,96067.00
2022-09-01T14:25:37.919Z,96049.00
2022-09-01T14:28:05.876Z,96058.00
2022-09-01T14:30:34.288Z,96050.00
2022-09-01T14:33:03.759Z,96049.00
2022-09-01T14:35:33.888Z,96043.00
2022-09-01T14:38:05.196Z,96044.00
2022-09-01T14:40:32.530Z,96038.00
2022-09-01T14:43:00.388Z,96046.00
2022-09-01T14:45:31.271Z,96039.00
2022-09-01T14:48:01.460Z,96041.00
2022-09-01T14:50:34.110Z,96047.00
2022-09-01T14:53:03.535Z,96035.00
2022-09-01T14:55:31.986Z,96031.00
2022-09-01T14:58:01.323Z,96027.00
2022-09-01T15:00:30.393Z,96039.00
2022-09-01T15:02:58.352Z,96032.00
2022-09-01T15:05:26.290Z,96035.00
2022-09-01T15:07:54.232Z,96023.00
2022-09-01T15:10:25.821Z,96032.00
2022-09-01T15:12:58.962Z,96031.00
2022-09-01T15:15:28.870Z,96030.00
2022-09-01T15:17:57.256Z,96025.00
2022-09-01T15:20:46.823Z,96035.00
2022-09-01T15:23:22.967Z,96020.00
2022-09-01T15:25:53.880Z,96025.00
2022-09-01T15:28:22.844Z,96023.00
2022-09-01T15:30:51.198Z,96024.00
2022-09-01T15:33:22.042Z,96018.00
2022-09-01T15:35:49.603Z,96026.00
2022-09-01T15:38:18.048Z,96024.00
2022-09-01T15:40:58.252Z,96019.00
2022-09-01T15:43:29.670Z,96017.00
2022-09-01T15:45:58.927Z,96032.00
2022-09-01T15:48:27.895Z,96023.00
2022-09-01T15:51:22.752Z,96029.00
2022-09-01T15:53:57.291Z,96020.00
2022-09-01T15:56:25.335Z,96012.00
2022-09-01T15:59:01.284Z,96016.00
2022-09-01T16:01:32.253Z,96019.00
2022-09-01T16:04:01.243Z,96011.00
2022-09-01T16:06:29.265Z,96018.00
2022-09-01T16:08:56.948Z,96016.00
2022-09-01T16:11:26.468Z,96014.00
2022-09-01T16:13:54.787Z,96021.00
2022-09-01T16:17:06.072Z,96013.00
2022-09-01T16:20:08.218Z,96013.00
2022-09-01T16:22:52.325Z,96009.00
2022-09-01T16:25:32.493Z,96018.00
2022-09-01T16:28:35.846Z,96005.00
2022-09-01T16:31:13.552Z,96002.00
2022-09-01T16:36:52.416Z,96003.00
2022-09-01T16:39:28.726Z,96011.00
2022-09-01T16:41:58.792Z,96010.00
2022-09-01T16:44:50.008Z,96002.00
2022-09-01T16:47:50.448Z,96005.00
2022-09-01T16:50:43.022Z,96010.00
2022-09-01T16:53:39.674Z,96005.00
2022-09-01T16:56:32.384Z,96003.00
2022-09-01T16:59:21.225Z,95994.00
2022-09-01T17:02:06.520Z,96001.00
2022-09-01T17:04:50.018Z,96002.00
2022-09-01T17:07:49.534Z,95981.00
2022-09-01T17:10:49.121Z,96001.00
2022-09-01T17:13:48.041Z,95994.00
2022-09-01T17:16:37.560Z,95993.00
2022-09-01T17:19:14.034Z,95988.00
2022-09-01T17:21:46.454Z,95998.00
2022-09-01T17:24:42.759Z,96001.00
2022-09-01T17:27:48.610Z,96001.00
2022-09-01T17:30:17.133Z,95995.00
2022-09-01T17:33:17.414Z,96001.00
2022-09-01T17:36:28.987Z,96005.00
2022-09-01T17:39:30.091Z,96003.00
2022-09-01T17:42:03.681Z,96004.00
2022-09-01T17:45:10.357Z,96008.00
2022-09-01T17:48:06.853Z,96003.00
2022-09-01T17:50:59.435Z,96011.00
2022-09-01T17:53:55.009Z,96009.00
2022-09-01T17:56:49.718Z,96014.00
2022-09-01T17:59:57.474Z,96013.00
2022-09-01T18:03:06.733Z,96013.00
2022-09-01T18:05:43.761Z,96007.00
2022-09-01T18:08:38.752Z,96008.00
2022-09-01T18:11:51.467Z,96011.00
2022-09-01T18:14:44.609Z,96010.00
2022-09-01T18:17:23.042Z,96020.00
2022-09-01T18:20:21.332Z,96019.00
2022-09-01T18:23:06.891Z,96027.00
2022-09-01T18:25:56.247Z,96016.00
2022-09-01T18:28:24.195Z,96020.00
2022-09-01T18:30:59.586Z,96043.00
2022-09-01T18:33:50.619Z,96027.00
2022-09-01T18:36:47.255Z,96042.00
2022-09-01T18:39:28.985Z,96047.00
2022-09-01T18:42:35.952Z,96036.00
2022-09-01T18:45:32.802Z,96051.00
2022-09-01T18:48:18.162Z,96033.00
2022-09-01T18:51:03.284Z,96033.00
2022-09-01T18:53:45.935Z,96046.00
2022-09-01T18:56:55.174Z,96051.00
2022-09-01T19:00:06.479Z,96048.00
2022-09-01T19:03:08.582Z,96050.00
2022-09-01T19:05:57.151Z,96044.00
2022-09-01T19:09:14.505Z,96032.00
2022-09-01T19:12:13.997Z,96045.00
2022-09-01T19:15:05.444Z,96042.00
2022-09-01T19:18:13.920Z,96052.00
2022-09-01T19:21:21.928Z,96032.00
2022-09-01T19:24:13.389Z,96053.00
2022-09-01T19:27:10.879Z,96041.00
2022-09-01T19:29:53.638Z,96045.00
2022-09-01T19:32:26.124Z,96044.00
2022-09-01T19:35:17.961Z,96051.00
2022-09-01T19:37:51.229Z,96032.00
2022-09-01T19:40:32.967Z,96025.00
2022-09-01T19:43:18.288Z,96040.00
2022-09-01T19:46:26.062Z,96045.00
2022-09-01T19:49:20.435Z,96051.00
2022-09-01T19:52:18.376Z,96048.00
2022-09-01T19:55:13.417Z,96029.00
2022-09-01T19:58:11.105Z,96042.00
2022-09-01T20:01:11.252Z,96034.00
2022-09-01T20:03:51.966Z,96040.00
2022-09-01T20:06:37.134Z,96040.00
2022-09-01T20:09:31.790Z,96042.00
2022-09-01T20:12:23.232Z,96044.00
2022-09-01T20:15:40.156Z,96043.00
2022-09-01T20:18:44.741Z,96027.00
2022-09-01T20:21:21.136Z,96013.00
2022-09-01T20:23:56.581Z,96041.00
2022-09-01T20:26:50.031Z,96021.00
2022-09-01T20:29:45.203Z,96027.00
2022-09-01T20:32:30.026Z,96023.00
2022-09-01T20:35:12.551Z,96035.00
2022-09-01T20:38:12.748Z,96019.00
2022-09-01T20:40:43.675Z,96023.00
2022-09-01T20:43:53.144Z,96018.00
2022-09-01T20:48:02.215Z,96029.00
2022-09-01T20:49:39.107Z,96031.00
2022-09-01T20:52:15.164Z,96038.00
2022-09-01T20:55:27.037Z,96041.00
2022-09-01T20:58:24.181Z,96028.00
2022-09-01T21:01:30.000Z,96033.00
2022-09-01T21:07:46.544Z,96032.00
2022-09-01T21:10:59.964Z,96023.00
2022-09-01T21:14:16.083Z,96034.00
2022-09-01T21:16:58.710Z,96036.00
2022-09-01T21:20:00.980Z,96032.00
2022-09-01T21:22:29.684Z,96027.00
2022-09-01T21:24:57.205Z,96037.00
2022-09-01T21:27:48.955Z,96028.00
2022-09-01T21:30:17.227Z,96023.00
2022-09-01T21:32:45.009Z,96034.00
2022-09-01T21:35:19.238Z,96029.00
2022-09-01T21:37:47.454Z,96031.00
2022-09-01T21:40:20.743Z,96028.00
2022-09-01T21:42:57.139Z,96023.00
2022-09-01T21:45:44.190Z,96028.00
2022-09-01T21:48:38.180Z,96028.00
2022-09-01T21:51:05.918Z,96015.00
2022-09-01T21:57:48.149Z,96031.00
2022-09-01T22:00:24.389Z,96007.00
2022-09-01T22:03:08.285Z,96020.00
2022-09-01T22:05:53.033Z,96026.00
2022-09-01T22:11:16.553Z,96016.00
2022-09-01T22:13:44.599Z,96011.00
2022-09-01T22:16:21.606Z,96013.00
2022-09-01T22:18:49.120Z,96013.00
2022-09-01T22:21:18.561Z,96013.00
2022-09-01T22:23:46.468Z,96015.00
2022-09-01T22:26:29.535Z,96019.00
2022-09-01T22:29:00.733Z,96017.00
2022-09-01T22:31:30.844Z,96013.00
2022-09-01T22:33:58.733Z,96011.00
2022-09-01T22:36:31.744Z,96011.00
2022-09-01T22:39:00.396Z,96005.00
2022-09-01T22:41:30.118Z,96008.00
2022-09-01T22:44:00.352Z,96012.00
2022-09-01T22:46:31.636Z,95998.00
2022-09-01T22:49:00.153Z,96007.00
2022-09-01T22:51:28.443Z,96011.00
2022-09-01T22:53:55.963Z,95998.00
2022-09-01T22:56:35.988Z,96008.00
2022-09-01T22:59:09.762Z,96004.00
2022-09-01T23:01:42.877Z,96004.00
2022-09-01T23:04:15.700Z,96005.00
2022-09-01T23:06:48.094Z,95999.00
2022-09-01T23:09:16.592Z,96001.00
2022-09-01T23:11:45.227Z,96003.00
2022-09-01T23:14:13.086Z,96004.00
2022-09-01T23:16:46.106Z,96008.00
2022-09-01T23:19:13.812Z,96010.00
2022-09-01T23:21:41.528Z,96002.00
2022-09-01T23:24:09.197Z,96003.00
2022-09-01T23:26:37.010Z,96003.00
2022-09-01T23:29:05.864Z,96003.00
2022-09-01T23:31:37.503Z,95999.00
2022-09-01T23:34:08.713Z,95991.00
2022-09-01T23:36:37.574Z,96000.00
2022-09-01T23:39:06.127Z,95996.00
2022-09-01T23:41:37.252Z,96001.00
2022-09-01T23:44:10.641Z,95996.00
2022-09-01T23:46:44.397Z,95997.00
2022-09-01T23:49:16.323Z,95995.00
2022-09-01T23:51:45.954Z,95995.00
2022-09-01T23:54:14.444Z,95987.00
2022-09-01T23:56:42.048Z,95992.00
2022-09-01T23:59:10.283Z,95977.00
